Terminal Aerodrome Forecast
Issued by NWS Pittsburgh, PA

Current Version | Previous Version | Graphics & Text | Print | Product List | Glossary On
Versions: 1 2 3 4 5 6 7 8 9 10 11 12 13 14 15 16 17 18 19 20 21 22 23 24 25 26 27 28 29 30
848
FTUS41 KPBZ 211135
TAFPIT
TAF
KPIT 211135Z 2112/2218 16010KT P6SM BKN120
     FM211700 17012KT P6SM -SHRA BKN050
     FM212100 17008KT P6SM BKN015
     FM220300 18008KT 3SM SHRA OVC015
     FM220700 28010KT P6SM OVC015=

USA.gov is the U.S. government's official web portal to all federal, state and local government web resources and services.